createdAt,value
2019-05-16T00:00:40.780Z,74.04
2019-05-16T00:01:42.169Z,74.24
2019-05-16T00:02:43.550Z,74.62
2019-05-16T00:03:44.939Z,75.28
2019-05-16T00:04:48.028Z,75.67
2019-05-16T00:05:54.040Z,75.76
2019-05-16T00:06:49.023Z,75.85
2019-05-16T00:07:50.415Z,76.14
2019-05-16T00:08:51.792Z,75.95
2019-05-16T00:09:53.187Z,76.01
2019-05-16T00:10:54.562Z,76.23
2019-05-16T00:11:58.014Z,75.85
2019-05-16T00:12:59.260Z,76.04
2019-05-16T00:13:58.676Z,76.71
2019-05-16T00:15:00.061Z,76.71
2019-05-16T00:16:01.449Z,76.71
2019-05-16T00:17:02.846Z,77.09
2019-05-16T00:18:04.241Z,77.37
2019-05-16T00:19:05.630Z,77.28
2019-05-16T00:20:08.976Z,77.09
2019-05-16T00:21:08.689Z,77.85
2019-05-16T00:22:09.751Z,77.76
2019-05-16T00:23:11.143Z,77.62
2019-05-16T00:24:12.527Z,77.76
2019-05-16T00:25:13.920Z,77.76
2019-05-16T00:26:15.302Z,78.14
2019-05-16T00:27:18.453Z,78.14
2019-05-16T00:28:18.165Z,78.14
2019-05-16T00:29:19.397Z,78.38
2019-05-16T00:30:20.783Z,78.19
2019-05-16T00:31:22.169Z,78.61
2019-05-16T00:32:23.578Z,78.90
2019-05-16T00:33:24.964Z,79.33
2019-05-16T00:34:27.910Z,79.72
2019-05-16T00:35:28.581Z,79.66
2019-05-16T00:36:29.060Z,79.91
2019-05-16T00:37:30.439Z,80.33
2019-05-16T00:38:31.831Z,80.80
2019-05-16T00:39:33.214Z,81.09
2019-05-16T00:40:34.607Z,80.80
2019-05-16T00:41:38.373Z,81.76
2019-05-16T00:42:39.049Z,81.66
2019-05-16T00:43:38.707Z,82.70
2019-05-16T00:44:40.105Z,82.48
2019-05-16T00:45:41.484Z,82.14
2019-05-16T00:46:42.878Z,82.90
2019-05-16T00:47:44.275Z,82.70
2019-05-16T00:48:45.658Z,83.81
2019-05-16T00:49:48.005Z,84.42
2019-05-16T00:50:48.407Z,85.08
2019-05-16T00:51:49.785Z,84.61
2019-05-16T00:52:51.169Z,85.47
2019-05-16T00:53:52.551Z,85.56
2019-05-16T00:54:53.939Z,85.94
2019-05-16T00:55:55.325Z,86.04
2019-05-16T00:56:57.840Z,86.18
2019-05-16T00:57:58.385Z,87.04
2019-05-16T00:58:59.415Z,86.47
2019-05-16T01:00:00.790Z,86.94
2019-05-16T01:01:02.178Z,87.42
2019-05-16T01:02:03.566Z,87.99
2019-05-16T01:03:04.950Z,88.09
2019-05-16T01:04:07.871Z,89.32
2019-05-16T01:05:08.584Z,89.61
2019-05-16T01:06:16.618Z,90.66
2019-05-16T01:07:10.404Z,91.32
2019-05-16T01:08:11.783Z,91.51
2019-05-16T01:09:13.180Z,91.70
2019-05-16T01:10:14.576Z,91.61
2019-05-16T01:11:18.341Z,91.89
2019-05-16T01:12:17.840Z,92.56
2019-05-16T01:13:18.776Z,92.65
2019-05-16T01:14:20.005Z,93.23
2019-05-16T01:15:21.389Z,94.37
2019-05-16T01:16:22.774Z,94.46
2019-05-16T01:17:24.166Z,94.93
2019-05-16T01:18:25.547Z,95.03
2019-05-16T01:19:27.816Z,95.12
2019-05-16T01:20:28.281Z,95.12
2019-05-16T01:21:29.660Z,95.41
2019-05-16T01:22:31.041Z,95.79
2019-05-16T01:23:32.436Z,95.41
2019-05-16T01:24:33.823Z,94.93
2019-05-16T01:25:35.217Z,95.60
2019-05-16T01:26:39.012Z,95.41
2019-05-16T01:27:38.553Z,94.46
2019-05-16T01:28:39.314Z,94.46
2019-05-16T01:29:40.705Z,94.18
2019-05-16T01:30:42.108Z,94.18
2019-05-16T01:31:43.492Z,94.93
2019-05-16T01:32:44.889Z,94.18
2019-05-16T01:33:47.754Z,94.65
2019-05-16T01:34:48.311Z,94.46
2019-05-16T01:35:48.976Z,93.70
2019-05-16T01:36:50.360Z,93.79
2019-05-16T01:37:51.746Z,93.98
2019-05-16T01:38:53.138Z,93.98
2019-05-16T01:39:54.529Z,94.08
2019-05-16T01:40:58.115Z,93.89
2019-05-16T01:41:58.656Z,93.51
2019-05-16T01:42:58.625Z,94.18
2019-05-16T01:44:00.035Z,94.27
2019-05-16T01:45:01.428Z,94.18
2019-05-16T01:46:02.818Z,93.89
2019-05-16T01:47:04.206Z,93.70
2019-05-16T01:48:08.050Z,94.84
2019-05-16T01:49:08.260Z,94.56
2019-05-16T01:50:08.695Z,94.65
2019-05-16T01:51:09.667Z,95.12
2019-05-16T01:52:11.057Z,94.74
2019-05-16T01:53:12.458Z,94.46
2019-05-16T01:54:13.858Z,95.60
2019-05-16T01:55:15.237Z,95.51
2019-05-16T01:56:17.946Z,95.12
2019-05-16T01:57:18.118Z,95.03
2019-05-16T01:58:19.891Z,95.89
2019-05-16T01:59:20.691Z,96.26
2019-05-16T02:00:24.818Z,95.22
2019-05-16T02:01:23.590Z,95.60
2019-05-16T02:02:24.974Z,95.22
2019-05-16T02:03:28.138Z,95.32
2019-05-16T02:04:28.729Z,95.41
2019-05-16T02:05:29.069Z,95.22
2019-05-16T02:06:30.466Z,95.41
2019-05-16T02:07:31.851Z,95.03
2019-05-16T02:08:33.249Z,95.12
2019-05-16T02:09:34.634Z,95.41
2019-05-16T02:10:37.740Z,95.89
2019-05-16T02:11:38.841Z,94.93
2019-05-16T02:12:38.744Z,95.12
2019-05-16T02:13:40.107Z,95.41
2019-05-16T02:14:41.495Z,95.12
2019-05-16T02:15:42.874Z,95.98
2019-05-16T02:16:44.259Z,95.89
2019-05-16T02:17:48.282Z,96.94
2019-05-16T02:18:48.677Z,96.74
2019-05-16T02:19:48.521Z,97.13
2019-05-16T02:20:49.698Z,96.84
2019-05-16T02:21:51.093Z,96.46
2019-05-16T02:22:53.124Z,95.98
2019-05-16T02:23:54.504Z,96.08
2019-05-16T02:24:55.889Z,96.65
2019-05-16T02:25:58.014Z,96.74
2019-05-16T02:26:58.908Z,97.03
2019-05-16T02:28:00.004Z,97.03
2019-05-16T02:29:01.394Z,97.22
2019-05-16T02:30:02.853Z,98.17
2019-05-16T02:31:04.243Z,98.08
2019-05-16T02:32:05.642Z,98.08
2019-05-16T02:33:07.023Z,97.41
2019-05-16T02:34:11.525Z,98.36
2019-05-16T02:35:11.835Z,98.93
2019-05-16T02:36:11.189Z,98.46
2019-05-16T02:37:24.080Z,99.69
2019-05-16T02:38:13.861Z,99.41
2019-05-16T02:39:15.253Z,99.02
2019-05-16T02:40:16.641Z,99.22
2019-05-16T02:41:21.300Z,98.93
2019-05-16T02:42:21.271Z,99.41
2019-05-16T02:43:25.347Z,99.79
2019-05-16T02:44:24.721Z,99.69
2019-05-16T02:45:24.601Z,99.99
2019-05-16T02:46:24.815Z,99.99
2019-05-16T02:47:26.202Z,99.99
2019-05-16T02:48:27.587Z,99.99
2019-05-16T02:49:30.601Z,99.99
2019-05-16T02:50:31.687Z,99.99
2019-05-16T02:51:31.774Z,99.99
2019-05-16T02:52:33.034Z,99.99
2019-05-16T02:53:34.430Z,99.99
2019-05-16T02:54:35.827Z,99.99
2019-05-16T02:55:37.226Z,99.99
2019-05-16T02:56:41.458Z,99.99
2019-05-16T02:57:41.582Z,99.99
2019-05-16T02:58:44.516Z,99.99
2019-05-16T02:59:42.668Z,99.99
2019-05-16T03:00:44.055Z,99.99
2019-05-16T03:01:45.441Z,99.99
2019-05-16T03:02:46.864Z,99.99
2019-05-16T03:03:51.337Z,99.99
2019-05-16T03:04:51.679Z,99.99
2019-05-16T03:05:51.189Z,99.99
2019-05-16T03:06:52.310Z,99.99
2019-05-16T03:07:53.720Z,99.99
2019-05-16T03:08:55.111Z,99.99
2019-05-16T03:09:56.514Z,99.99
2019-05-16T03:11:00.722Z,99.99
2019-05-16T03:12:01.327Z,99.99
2019-05-16T03:13:01.094Z,99.99
2019-05-16T03:14:01.993Z,99.99
2019-05-16T03:15:03.390Z,99.99
2019-05-16T03:16:04.786Z,99.99
2019-05-16T03:17:06.175Z,99.99
2019-05-16T03:18:10.853Z,99.99
2019-05-16T03:19:11.165Z,99.99
2019-05-16T03:20:10.863Z,99.99
2019-05-16T03:21:11.666Z,99.99
2019-05-16T03:22:13.084Z,99.99
2019-05-16T03:23:14.472Z,99.99
2019-05-16T03:24:15.874Z,99.99
2019-05-16T03:25:17.279Z,99.99
2019-05-16T03:26:21.049Z,99.99
2019-05-16T03:27:21.623Z,99.99
2019-05-16T03:28:22.331Z,99.99
2019-05-16T03:29:22.780Z,99.99
2019-05-16T03:30:24.291Z,99.99
2019-05-16T03:31:25.646Z,99.99
2019-05-16T03:32:26.999Z,99.99
2019-05-16T03:33:35.147Z,99.99
2019-05-16T03:34:34.435Z,99.99
2019-05-16T03:35:33.845Z,99.99
2019-05-16T03:36:34.517Z,99.99
2019-05-16T03:37:49.937Z,99.99
2019-05-16T03:38:35.263Z,99.99
2019-05-16T03:39:36.662Z,99.99
2019-05-16T03:40:41.012Z,99.99
2019-05-16T03:41:41.489Z,99.99
2019-05-16T03:42:41.646Z,99.99
2019-05-16T03:43:42.134Z,99.99
2019-05-16T03:44:43.523Z,99.99
2019-05-16T03:45:44.915Z,99.99
2019-05-16T03:46:46.311Z,99.99
2019-05-16T03:47:50.827Z,99.99
2019-05-16T03:48:51.913Z,99.99
2019-05-16T03:49:51.760Z,99.99
2019-05-16T03:50:52.019Z,99.99
2019-05-16T03:51:53.410Z,99.99
2019-05-16T03:52:54.802Z,99.99
2019-05-16T03:53:56.186Z,99.99
2019-05-16T03:54:57.726Z,99.99
2019-05-16T03:56:01.574Z,99.99
2019-05-16T03:57:02.495Z,99.99
2019-05-16T03:58:03.869Z,99.99
2019-05-16T03:59:05.253Z,99.99
2019-05-16T04:00:06.656Z,99.99
2019-05-16T04:01:10.806Z,99.99
2019-05-16T04:02:10.803Z,99.99
2019-05-16T04:03:11.583Z,99.99
2019-05-16T04:04:12.283Z,99.99
2019-05-16T04:05:13.467Z,99.99
2019-05-16T04:06:14.914Z,99.99
2019-05-16T04:07:16.314Z,99.99
2019-05-16T04:08:23.293Z,99.99
2019-05-16T04:09:21.128Z,99.99
2019-05-16T04:10:21.570Z,99.99
2019-05-16T04:11:23.190Z,99.99
2019-05-16T04:12:23.138Z,99.99
2019-05-16T04:13:24.529Z,99.99
2019-05-16T04:14:25.928Z,99.99
2019-05-16T04:15:27.329Z,99.99
2019-05-16T04:16:31.066Z,99.99
2019-05-16T04:17:31.796Z,99.99
2019-05-16T04:18:31.998Z,99.99
2019-05-16T04:19:32.802Z,99.99
2019-05-16T04:20:34.191Z,99.99
2019-05-16T04:21:35.611Z,99.99
2019-05-16T04:22:37.026Z,99.99
2019-05-16T04:23:41.671Z,99.99
2019-05-16T04:24:41.729Z,99.99
2019-05-16T04:25:41.365Z,99.99
2019-05-16T04:26:42.766Z,99.99
2019-05-16T04:27:44.165Z,99.99
2019-05-16T04:28:45.565Z,99.99
2019-05-16T04:29:46.950Z,99.99
2019-05-16T04:30:50.504Z,99.99
2019-05-16T04:31:50.898Z,99.99
2019-05-16T04:32:51.246Z,99.99
2019-05-16T04:33:52.420Z,99.99
2019-05-16T04:34:53.804Z,99.99
2019-05-16T04:35:55.192Z,99.99
2019-05-16T04:36:56.583Z,99.99
2019-05-16T04:38:01.606Z,99.99
2019-05-16T04:39:01.577Z,99.99
2019-05-16T04:40:01.208Z,99.99
2019-05-16T04:41:02.105Z,99.99
2019-05-16T04:42:03.508Z,99.99
2019-05-16T04:43:04.903Z,99.99
2019-05-16T04:44:06.395Z,99.99
2019-05-16T04:45:07.792Z,99.99
2019-05-16T04:46:11.401Z,99.99
2019-05-16T04:47:11.004Z,99.99
2019-05-16T04:48:11.979Z,99.99
2019-05-16T04:49:13.435Z,99.99
2019-05-16T04:50:14.841Z,99.99
2019-05-16T04:51:16.222Z,99.99
2019-05-16T04:52:17.656Z,99.99
2019-05-16T04:53:20.795Z,99.99
2019-05-16T04:54:21.619Z,99.99
2019-05-16T04:55:21.853Z,99.99
2019-05-16T04:56:23.258Z,99.99
2019-05-16T04:57:24.654Z,99.99
2019-05-16T04:58:26.113Z,99.99
2019-05-16T04:59:27.492Z,99.99
2019-05-16T05:00:31.659Z,99.99
2019-05-16T05:01:30.709Z,99.99
2019-05-16T05:02:31.661Z,99.99
2019-05-16T05:03:33.063Z,99.99
2019-05-16T05:04:34.451Z,99.99
2019-05-16T05:05:35.858Z,99.99
2019-05-16T05:06:40.364Z,99.99
2019-05-16T05:07:40.584Z,99.99
2019-05-16T05:08:50.527Z,99.99
2019-05-16T05:09:41.388Z,99.99
2019-05-16T05:10:42.807Z,99.99
2019-05-16T05:11:44.217Z,99.99
2019-05-16T05:12:45.627Z,99.99
2019-05-16T05:13:47.017Z,99.99
2019-05-16T05:14:50.816Z,99.99
2019-05-16T05:15:50.887Z,99.99
2019-05-16T05:16:51.158Z,99.99
2019-05-16T05:17:52.554Z,99.99
2019-05-16T05:18:53.962Z,99.99
2019-05-16T05:19:55.356Z,99.99
2019-05-16T05:20:56.743Z,99.99
2019-05-16T05:22:01.154Z,99.99
2019-05-16T05:23:00.413Z,99.99
2019-05-16T05:24:00.863Z,99.99
2019-05-16T05:25:02.276Z,99.99
2019-05-16T05:26:03.698Z,99.99
2019-05-16T05:27:05.088Z,99.99
2019-05-16T05:28:06.481Z,99.99
2019-05-16T05:29:10.206Z,99.99
2019-05-16T05:30:10.532Z,99.99
2019-05-16T05:31:10.992Z,99.99
2019-05-16T05:32:14.269Z,99.99
2019-05-16T05:33:13.419Z,99.99
2019-05-16T05:34:14.806Z,99.99
2019-05-16T05:35:16.210Z,99.99
2019-05-16T05:36:17.623Z,99.99
2019-05-16T05:37:20.411Z,99.99
2019-05-16T05:38:21.230Z,99.99
2019-05-16T05:39:21.764Z,99.99
2019-05-16T05:40:23.173Z,99.99
2019-05-16T05:41:24.595Z,99.99
2019-05-16T05:42:26.000Z,99.99
2019-05-16T05:43:27.397Z,99.99
2019-05-16T05:44:30.545Z,99.99
2019-05-16T05:45:30.622Z,99.99
2019-05-16T05:46:31.654Z,99.99
2019-05-16T05:47:32.892Z,99.99
2019-05-16T05:48:34.292Z,99.99
2019-05-16T05:49:36.679Z,99.99
2019-05-16T05:50:40.040Z,99.99
2019-05-16T05:51:40.619Z,99.99
2019-05-16T05:52:41.116Z,99.99
2019-05-16T05:53:42.182Z,99.99
2019-05-16T05:54:43.582Z,99.99
2019-05-16T05:55:44.990Z,99.99
2019-05-16T05:56:46.388Z,99.99
2019-05-16T05:57:50.433Z,99.99
2019-05-16T05:58:51.081Z,99.99
2019-05-16T05:59:50.544Z,99.99
2019-05-16T06:00:52.307Z,99.99
2019-05-16T06:01:53.319Z,99.99
2019-05-16T06:02:54.741Z,99.99
2019-05-16T06:03:56.148Z,99.99
2019-05-16T06:04:59.575Z,99.99
2019-05-16T06:06:00.864Z,99.99
2019-05-16T06:07:01.208Z,99.99
2019-05-16T06:08:01.639Z,99.99
2019-05-16T06:09:03.114Z,99.99
2019-05-16T06:10:04.479Z,99.99
2019-05-16T06:11:05.874Z,99.99
2019-05-16T06:12:07.597Z,99.99
2019-05-16T06:13:10.945Z,99.99
2019-05-16T06:14:10.025Z,99.99
2019-05-16T06:15:12.933Z,99.99
2019-05-16T06:16:12.820Z,99.99
2019-05-16T06:17:14.227Z,99.99
2019-05-16T06:18:15.637Z,99.99
2019-05-16T06:19:17.052Z,99.99
2019-05-16T06:20:20.131Z,99.99
2019-05-16T06:21:20.270Z,99.99
2019-05-16T06:22:21.207Z,99.99
2019-05-16T06:23:22.615Z,99.99
2019-05-16T06:24:24.003Z,99.99
2019-05-16T06:25:25.415Z,99.99
2019-05-16T06:26:26.838Z,99.99
2019-05-16T06:27:30.043Z,99.99
2019-05-16T06:28:30.896Z,99.99
2019-05-16T06:29:31.163Z,99.99
2019-05-16T06:30:32.377Z,99.99
2019-05-16T06:31:33.764Z,99.99
2019-05-16T06:32:35.170Z,99.99
2019-05-16T06:33:36.561Z,99.99
2019-05-16T06:34:40.277Z,99.99
2019-05-16T06:35:40.242Z,99.99
2019-05-16T06:36:40.725Z,99.99
2019-05-16T06:37:42.113Z,99.99
2019-05-16T06:38:43.508Z,99.99
2019-05-16T06:39:45.503Z,99.99
2019-05-16T06:40:49.037Z,99.99
2019-05-16T06:41:47.619Z,99.99
2019-05-16T06:42:50.790Z,99.99
2019-05-16T06:43:50.653Z,99.99
2019-05-16T06:44:51.766Z,99.99
2019-05-16T06:45:53.179Z,99.99
2019-05-16T06:47:07.140Z,99.99
2019-05-16T06:47:55.986Z,99.99
2019-05-16T06:48:59.548Z,99.99
2019-05-16T06:50:00.282Z,99.99
2019-05-16T06:51:02.864Z,99.99
2019-05-16T06:52:01.534Z,99.99
2019-05-16T06:53:02.927Z,99.99
2019-05-16T06:54:04.328Z,99.99
2019-05-16T06:55:05.731Z,99.99
2019-05-16T06:56:07.124Z,99.99
2019-05-16T06:57:10.418Z,99.99
2019-05-16T06:58:10.634Z,99.99
2019-05-16T06:59:11.294Z,99.99
2019-05-16T07:00:12.717Z,99.99
2019-05-16T07:01:14.106Z,99.99
2019-05-16T07:02:26.599Z,99.99
2019-05-16T07:03:16.899Z,99.99
2019-05-16T07:04:19.917Z,99.99
2019-05-16T07:05:20.838Z,99.99
2019-05-16T07:06:45.522Z,99.99
2019-05-16T07:07:22.521Z,99.99
2019-05-16T07:08:23.923Z,99.99
2019-05-16T07:09:25.311Z,99.99
2019-05-16T07:10:26.735Z,99.99
2019-05-16T07:11:30.483Z,99.99
2019-05-16T07:12:33.181Z,99.99
2019-05-16T07:13:30.869Z,99.99
2019-05-16T07:14:32.264Z,99.99
2019-05-16T07:15:33.653Z,99.99
2019-05-16T07:16:35.048Z,99.99
2019-05-16T07:17:36.449Z,99.99
2019-05-16T07:18:40.201Z,99.99
2019-05-16T07:19:40.777Z,99.99
2019-05-16T07:20:40.573Z,99.99
2019-05-16T07:21:41.963Z,99.99
2019-05-16T07:22:43.367Z,99.99
2019-05-16T07:23:44.774Z,99.99
2019-05-16T07:24:46.782Z,99.99
2019-05-16T07:25:50.255Z,99.99
2019-05-16T07:26:50.091Z,99.99
2019-05-16T07:27:51.243Z,99.99
2019-05-16T07:28:52.333Z,99.99
2019-05-16T07:29:53.735Z,99.99
2019-05-16T07:30:55.161Z,99.99
2019-05-16T07:31:56.575Z,99.99
2019-05-16T07:33:00.193Z,99.99
2019-05-16T07:34:00.823Z,99.99
2019-05-16T07:35:00.709Z,99.99
2019-05-16T07:36:02.174Z,99.99
2019-05-16T07:37:03.595Z,99.99
2019-05-16T07:38:04.983Z,99.99
2019-05-16T07:39:06.371Z,99.99
2019-05-16T07:40:15.991Z,99.99
2019-05-16T07:41:10.943Z,99.99
2019-05-16T07:42:11.057Z,99.99
2019-05-16T07:43:11.902Z,99.99
2019-05-16T07:44:13.290Z,99.99
2019-05-16T07:45:14.678Z,99.99
2019-05-16T07:46:16.081Z,99.99
2019-05-16T07:47:17.505Z,99.99
2019-05-16T07:48:21.462Z,99.99
2019-05-16T07:49:20.292Z,99.99
2019-05-16T07:50:21.703Z,99.99
2019-05-16T07:51:23.108Z,99.99
2019-05-16T07:52:24.480Z,99.99
2019-05-16T07:53:25.876Z,99.99
2019-05-16T07:54:27.298Z,99.99
2019-05-16T07:55:30.707Z,99.99
2019-05-16T07:56:31.059Z,99.99
2019-05-16T07:57:31.413Z,99.99
2019-05-16T07:58:32.818Z,99.99
2019-05-16T07:59:34.216Z,99.99
2019-05-16T08:00:49.779Z,99.99
2019-05-16T08:01:37.007Z,99.99
2019-05-16T08:02:40.233Z,99.99
2019-05-16T08:03:41.274Z,99.99
2019-05-16T08:04:41.141Z,99.99
2019-05-16T08:05:42.535Z,99.99
2019-05-16T08:06:46.940Z,99.99
2019-05-16T08:07:45.328Z,99.99
2019-05-16T08:08:46.752Z,99.99
2019-05-16T08:09:50.304Z,99.99
2019-05-16T08:10:50.764Z,99.99
2019-05-16T08:11:50.947Z,99.99
2019-05-16T08:12:52.342Z,99.99
2019-05-16T08:13:53.734Z,99.99
2019-05-16T08:14:55.149Z,99.99
2019-05-16T08:15:56.544Z,99.99
2019-05-16T08:17:00.950Z,99.99
2019-05-16T08:18:03.122Z,99.99
2019-05-16T08:19:00.942Z,99.99
2019-05-16T08:20:02.155Z,99.99
2019-05-16T08:21:03.542Z,99.99
2019-05-16T08:22:04.953Z,99.99
2019-05-16T08:23:06.445Z,99.99
2019-05-16T08:24:08.338Z,99.99
2019-05-16T08:25:10.679Z,99.99
2019-05-16T08:26:10.747Z,99.99
2019-05-16T08:27:12.340Z,99.99
2019-05-16T08:28:13.541Z,99.99
2019-05-16T08:29:15.016Z,99.99
2019-05-16T08:30:16.347Z,99.99
2019-05-16T08:31:20.734Z,99.99
2019-05-16T08:32:22.631Z,99.99
2019-05-16T08:33:21.812Z,99.99
2019-05-16T08:34:21.910Z,99.99
2019-05-16T08:35:23.297Z,99.99
2019-05-16T08:36:24.689Z,99.99
2019-05-16T08:37:37.444Z,99.99
2019-05-16T08:38:27.448Z,99.99
2019-05-16T08:39:31.091Z,99.99
2019-05-16T08:40:31.613Z,99.99
2019-05-16T08:41:31.857Z,99.99
2019-05-16T08:42:32.925Z,99.99
2019-05-16T08:43:34.322Z,99.99
2019-05-16T08:44:35.714Z,99.99
2019-05-16T08:45:37.145Z,99.99
2019-05-16T08:47:41.814Z,99.99
2019-05-16T08:48:42.366Z,99.99
2019-05-16T08:49:42.689Z,99.99
2019-05-16T08:50:50.334Z,99.99
2019-05-16T08:51:45.469Z,99.99
2019-05-16T08:52:46.873Z,99.99
2019-05-16T08:53:50.539Z,99.99
2019-05-16T08:54:51.135Z,99.99
2019-05-16T08:55:51.106Z,99.99
2019-05-16T08:56:52.363Z,99.99
2019-05-16T08:57:53.774Z,99.99
2019-05-16T08:58:55.180Z,99.99
2019-05-16T08:59:56.585Z,99.99
2019-05-16T09:01:01.933Z,99.99
2019-05-16T09:02:03.247Z,99.99
2019-05-16T09:03:01.806Z,99.99
2019-05-16T09:04:02.072Z,99.99
2019-05-16T09:05:05.339Z,99.99
2019-05-16T09:06:04.816Z,99.99
2019-05-16T09:07:06.222Z,99.99
2019-05-16T09:08:07.620Z,99.99
2019-05-16T09:09:26.467Z,99.99
2019-05-16T09:10:21.223Z,99.99
2019-05-16T09:10:42.674Z,99.99
2019-05-16T09:11:29.911Z,99.99
2019-05-16T09:12:13.088Z,99.99
2019-05-16T09:13:16.760Z,99.99
2019-05-16T09:14:17.119Z,99.99
2019-05-16T09:15:17.318Z,99.99
2019-05-16T09:16:18.598Z,99.99
2019-05-16T09:17:19.985Z,99.99
2019-05-16T09:18:21.383Z,99.99
2019-05-16T09:19:22.777Z,99.99
2019-05-16T09:20:24.169Z,99.99
2019-05-16T09:21:27.466Z,99.99
2019-05-16T09:22:28.235Z,99.99
2019-05-16T09:23:28.289Z,99.99
2019-05-16T09:24:29.680Z,99.99
2019-05-16T09:25:31.086Z,99.99
2019-05-16T09:26:32.472Z,99.99
2019-05-16T09:27:33.875Z,99.99
2019-05-16T09:28:38.709Z,99.99
2019-05-16T09:29:36.749Z,99.99
2019-05-16T09:30:37.988Z,99.99
2019-05-16T09:31:39.392Z,99.99
2019-05-16T09:32:42.730Z,99.99
2019-05-16T09:33:42.142Z,99.99
2019-05-16T09:34:43.536Z,99.99
2019-05-16T09:35:47.413Z,99.99
2019-05-16T09:36:48.167Z,99.99
2019-05-16T09:37:47.711Z,99.99
2019-05-16T09:38:49.066Z,99.99
2019-05-16T09:39:50.470Z,99.99
2019-05-16T09:40:51.874Z,99.99
2019-05-16T09:41:55.570Z,99.99
2019-05-16T09:42:56.627Z,99.99
2019-05-16T09:43:58.663Z,99.99
2019-05-16T09:44:57.775Z,99.99
2019-05-16T09:46:03.653Z,99.99
2019-05-16T09:47:00.086Z,99.99
2019-05-16T09:48:01.479Z,99.99
2019-05-16T09:49:16.923Z,99.99
2019-05-16T09:50:06.776Z,99.99
2019-05-16T09:51:06.633Z,99.99
2019-05-16T09:52:07.499Z,99.99
2019-05-16T09:53:08.294Z,99.99
2019-05-16T09:54:09.682Z,99.99
2019-05-16T09:55:11.119Z,99.99
2019-05-16T09:56:12.510Z,99.99
2019-05-16T09:57:13.916Z,99.99
2019-05-16T09:58:17.703Z,99.99
2019-05-16T09:59:17.216Z,99.99
2019-05-16T10:00:18.067Z,99.99
2019-05-16T10:01:19.377Z,99.99
2019-05-16T10:02:20.767Z,99.99
2019-05-16T10:03:22.668Z,99.99
2019-05-16T10:04:23.548Z,99.99
2019-05-16T10:05:26.766Z,99.99
2019-05-16T10:06:27.610Z,99.99
2019-05-16T10:07:28.288Z,99.99
2019-05-16T10:08:29.054Z,99.99
2019-05-16T10:09:40.847Z,99.99
2019-05-16T10:10:31.832Z,99.99
2019-05-16T10:11:33.227Z,99.99
2019-05-16T10:12:36.937Z,99.99
2019-05-16T10:13:37.568Z,99.99
2019-05-16T10:14:37.772Z,99.99
2019-05-16T10:15:38.719Z,99.99
2019-05-16T10:16:40.111Z,99.99
2019-05-16T10:17:41.516Z,99.99
2019-05-16T10:18:42.907Z,99.99
2019-05-16T10:19:44.309Z,99.99
2019-05-16T10:20:45.711Z,99.99
2019-05-16T10:21:47.100Z,99.99
2019-05-16T10:22:50.604Z,99.99
2019-05-16T10:23:49.854Z,99.99
2019-05-16T10:24:51.260Z,99.99
2019-05-16T10:25:52.663Z,99.99
2019-05-16T10:26:54.361Z,99.99
2019-05-16T10:27:55.435Z,99.99
2019-05-16T10:28:57.838Z,99.99
2019-05-16T10:30:01.156Z,99.99
2019-05-16T10:30:59.539Z,99.99
2019-05-16T10:32:00.934Z,99.99
2019-05-16T10:33:02.328Z,99.99
2019-05-16T10:34:03.776Z,99.99
2019-05-16T10:35:05.188Z,99.99
2019-05-16T10:36:08.448Z,99.99
2019-05-16T10:37:07.953Z,99.99
2019-05-16T10:38:09.356Z,99.99
2019-05-16T10:39:10.768Z,99.99
2019-05-16T10:40:12.162Z,99.99
2019-05-16T10:41:13.590Z,99.99
2019-05-16T10:42:24.857Z,99.99
2019-05-16T10:43:17.290Z,99.99
2019-05-16T10:44:17.778Z,99.99
2019-05-16T10:45:19.045Z,99.99
2019-05-16T10:46:20.453Z,99.99
2019-05-16T10:47:21.851Z,99.99
2019-05-16T10:48:23.253Z,99.99
2019-05-16T10:49:34.339Z,99.99
2019-05-16T10:50:27.659Z,99.99
2019-05-16T10:51:27.411Z,99.99
2019-05-16T10:52:28.717Z,99.99
2019-05-16T10:53:57.934Z,99.99
2019-05-16T10:54:31.486Z,99.99
2019-05-16T10:55:32.889Z,99.99
2019-05-16T10:56:34.275Z,99.99
2019-05-16T10:57:37.596Z,99.99
2019-05-16T10:58:51.707Z,99.99
2019-05-16T10:59:59.747Z,99.99
2019-05-16T11:01:06.645Z,99.99
2019-05-16T11:01:41.099Z,99.99
2019-05-16T11:02:42.539Z,99.99
2019-05-16T11:03:43.888Z,99.99
2019-05-16T11:04:59.203Z,99.99
2019-05-16T11:06:01.197Z,99.99
2019-05-16T11:06:48.023Z,99.99
2019-05-16T11:07:52.942Z,99.99
2019-05-16T11:08:50.795Z,99.99
2019-05-16T11:09:57.923Z,99.99
2019-05-16T11:10:53.597Z,99.99
2019-05-16T11:11:56.984Z,99.99
2019-05-16T11:12:59.336Z,99.99
2019-05-16T11:13:57.709Z,99.99
2019-05-16T11:14:59.105Z,99.99
2019-05-16T11:16:00.492Z,99.99
2019-05-16T11:17:01.893Z,99.99
2019-05-16T11:18:03.293Z,99.99
2019-05-16T11:19:14.306Z,99.99
2019-05-16T11:20:06.081Z,99.99
2019-05-16T11:21:07.439Z,99.99
2019-05-16T11:22:08.829Z,99.99
2019-05-16T11:23:10.254Z,99.99
2019-05-16T11:24:13.101Z,99.99
2019-05-16T11:25:24.069Z,99.99
2019-05-16T11:26:14.367Z,99.99
2019-05-16T11:27:15.767Z,99.99
2019-05-16T11:28:17.752Z,99.99
2019-05-16T11:29:18.529Z,99.99
2019-05-16T11:30:20.037Z,99.99
2019-05-16T11:31:21.290Z,99.99
2019-05-16T11:32:22.690Z,99.99
2019-05-16T11:33:24.107Z,99.99
2019-05-16T11:34:26.648Z,99.99
2019-05-16T11:35:27.279Z,99.99
2019-05-16T11:36:28.218Z,99.99
2019-05-16T11:37:29.624Z,99.99
2019-05-16T11:38:31.570Z,99.99
2019-05-16T11:39:32.978Z,99.99
2019-05-16T11:40:34.381Z,99.99
2019-05-16T11:41:35.765Z,99.99
2019-05-16T11:42:37.808Z,99.99
2019-05-16T11:43:38.530Z,99.99
2019-05-16T11:44:39.925Z,99.99
2019-05-16T11:45:41.332Z,99.99
2019-05-16T11:46:42.740Z,99.99
2019-05-16T11:47:46.848Z,99.99
2019-05-16T11:48:45.487Z,99.99
2019-05-16T11:49:47.632Z,99.99
2019-05-16T11:50:48.318Z,99.99
2019-05-16T11:51:49.677Z,99.99
2019-05-16T11:52:51.083Z,99.99
2019-05-16T11:53:52.481Z,99.99
2019-05-16T11:54:53.994Z,99.99
2019-05-16T11:56:00.459Z,99.99
2019-05-16T11:56:57.061Z,99.99
2019-05-16T11:57:58.124Z,99.99
2019-05-16T11:58:59.524Z,99.99
2019-05-16T12:00:00.931Z,99.99
2019-05-16T12:01:02.325Z,99.99
2019-05-16T12:02:03.778Z,99.99
2019-05-16T12:03:05.150Z,99.99
2019-05-16T12:04:07.924Z,99.99
2019-05-16T12:05:07.919Z,99.99
2019-05-16T12:06:10.893Z,99.99
2019-05-16T12:07:10.695Z,99.99
2019-05-16T12:08:12.093Z,99.99
2019-05-16T12:09:13.491Z,99.99
2019-05-16T12:10:16.431Z,99.99
2019-05-16T12:11:17.920Z,99.99
2019-05-16T12:12:20.632Z,99.99
2019-05-16T12:13:28.181Z,99.99
2019-05-16T12:14:20.369Z,99.99
2019-05-16T12:15:21.765Z,99.99
2019-05-16T12:16:23.192Z,99.99
2019-05-16T12:17:24.577Z,99.99
2019-05-16T12:18:26.758Z,99.99
2019-05-16T12:19:33.768Z,99.99
2019-05-16T12:20:29.434Z,99.99
2019-05-16T12:21:30.829Z,99.99
2019-05-16T12:22:32.237Z,99.99
2019-05-16T12:23:33.638Z,99.99
2019-05-16T12:24:40.575Z,99.99
2019-05-16T12:25:36.878Z,99.99
2019-05-16T12:26:37.808Z,99.99
2019-05-16T12:27:42.242Z,99.99
2019-05-16T12:28:40.646Z,99.99
2019-05-16T12:29:42.063Z,99.99
2019-05-16T12:30:43.458Z,99.99
2019-05-16T12:31:56.367Z,99.99
2019-05-16T12:32:47.047Z,99.99
2019-05-16T12:33:47.923Z,99.99
2019-05-16T12:34:48.974Z,99.99
2019-05-16T12:35:50.367Z,99.99
2019-05-16T12:36:51.774Z,99.99
2019-05-16T12:37:53.161Z,99.99
2019-05-16T12:38:54.561Z,99.99
2019-05-16T12:39:57.322Z,99.99
2019-05-16T12:40:57.344Z,99.99
2019-05-16T12:41:59.569Z,99.99
2019-05-16T12:43:00.121Z,99.99
2019-05-16T12:44:01.525Z,99.99
2019-05-16T12:45:02.921Z,99.99
2019-05-16T12:46:04.339Z,99.99
2019-05-16T12:47:07.375Z,99.99
2019-05-16T12:48:07.209Z,99.99
2019-05-16T12:49:08.468Z,99.99
2019-05-16T12:50:09.871Z,99.99
2019-05-16T12:51:11.263Z,99.99
2019-05-16T12:52:12.666Z,99.99
2019-05-16T12:53:14.074Z,99.99
2019-05-16T12:54:18.096Z,99.99
2019-05-16T12:55:16.836Z,99.99
2019-05-16T12:56:18.263Z,99.99
2019-05-16T12:57:26.632Z,99.99
2019-05-16T12:58:25.942Z,99.99
2019-05-16T12:59:22.360Z,99.99
2019-05-16T13:00:23.758Z,99.99
2019-05-16T13:01:30.786Z,99.99
2019-05-16T13:02:27.322Z,99.99
2019-05-16T13:03:27.937Z,99.99
2019-05-16T13:04:29.262Z,99.99
2019-05-16T13:05:30.630Z,99.99
2019-05-16T13:06:32.027Z,99.99
2019-05-16T13:07:33.437Z,99.99
2019-05-16T13:08:37.245Z,99.99
2019-05-16T13:09:37.073Z,99.99
2019-05-16T13:10:37.911Z,99.99